Time;durP1;ratioP1;P1;durP2;ratioP2;P2;SDS_P1;SDS_P2;PMS_P1;PMS_P2;Temp;Humidity;BMP_temperature;BMP_pressure;BME280_temperature;BME280_humidity;BME280_pressure;Samples;Min_cycle;Max_cycle;Signal;HPM_P1;HPM_P2
2023/03/30 00:00:12;;;;;;;;;1.00;1.00;;;;;14.22;65.98;99049.94;5119341;28;8895;-61
2023/03/30 00:02:42;;;;;;;;;0.50;0.50;;;;;14.21;66.61;99035.69;5118554;28;8804;-58
2023/03/30 00:05:10;;;;;;;;;1.00;1.00;;;;;14.23;65.68;99040.91;5118305;28;8924;-62
2023/03/30 00:07:41;;;;;;;;;1.00;1.00;;;;;14.23;66.19;99046.25;5117291;28;8828;-60
2023/03/30 00:10:09;;;;;;;;;2.50;2.50;;;;;14.23;65.99;99043.56;5118860;28;8819;-58
2023/03/30 00:12:36;;;;;;;;;1.00;1.00;;;;;14.20;65.73;99031.34;5118118;28;8804;-60
2023/03/30 00:15:04;;;;;;;;;2.00;2.00;;;;;14.20;65.71;99041.25;5118020;28;8839;-60
2023/03/30 00:17:32;;;;;;;;;3.00;1.00;;;;;14.20;65.89;99038.56;5117821;28;8828;-63
2023/03/30 00:20:04;;;;;;;;;0.00;0.00;;;;;14.15;65.44;99032.84;5118405;28;8832;-61
2023/03/30 00:22:33;;;;;;;;;1.00;1.00;;;;;14.17;65.93;99036.16;5117545;28;8956;-61
2023/03/30 00:25:00;;;;;;;;;2.50;2.50;;;;;14.16;65.64;99034.50;5118019;28;8844;-59
2023/03/30 00:27:28;;;;;;;;;1.00;1.00;;;;;14.14;65.52;99020.44;5117399;28;8863;-61
2023/03/30 00:29:55;;;;;;;;;2.00;2.00;;;;;14.13;65.47;99027.63;5117129;28;8808;-60
2023/03/30 00:32:23;;;;;;;;;5.00;3.75;;;;;14.12;65.15;99012.56;5117591;28;8796;-62
2023/03/30 00:34:51;;;;;;;;;3.00;3.00;;;;;14.13;65.71;99014.25;5116136;28;8820;-59
2023/03/30 00:37:19;;;;;;;;;1.00;1.00;;;;;14.15;65.49;99012.25;5116509;28;8828;-60
2023/03/30 00:39:47;;;;;;;;;1.50;1.00;;;;;14.18;64.75;99016.47;5117953;28;8836;-62
2023/03/30 00:42:17;;;;;;;;;1.00;1.00;;;;;14.18;65.26;99011.13;5117867;28;8812;-60
2023/03/30 00:44:47;;;;;;;;;4.00;3.50;;;;;14.16;65.21;99005.03;5117738;28;8790;-60
2023/03/30 00:47:15;;;;;;;;;2.00;2.00;;;;;14.19;65.19;99004.75;5118163;28;8828;-61
2023/03/30 00:49:43;;;;;;;;;3.00;3.00;;;;;14.18;65.25;98987.84;5117924;28;8986;-60
2023/03/30 00:52:10;;;;;;;;;2.00;1.50;;;;;14.21;64.58;98992.84;5117528;28;8836;-60
2023/03/30 00:54:38;;;;;;;;;1.00;1.00;;;;;14.27;64.94;98986.81;5118089;28;8808;-62
2023/03/30 00:57:06;;;;;;;;;1.50;1.50;;;;;14.30;64.55;98985.66;5118067;28;8831;-60
2023/03/30 00:59:34;;;;;;;;;2.00;2.00;;;;;14.33;64.49;98982.66;5117719;28;8810;-61
2023/03/30 01:02:01;;;;;;;;;3.00;2.00;;;;;14.35;64.53;98972.59;5118196;28;8805;-60
2023/03/30 01:04:29;;;;;;;;;1.50;1.50;;;;;14.36;64.76;98972.41;5117608;28;8821;-61
2023/03/30 01:06:57;;;;;;;;;1.00;1.00;;;;;14.36;63.82;98974.28;5117822;28;8915;-61
2023/03/30 01:09:25;;;;;;;;;1.50;1.00;;;;;14.36;64.45;98971.59;5117751;28;8866;-62
2023/03/30 01:11:53;;;;;;;;;2.50;2.00;;;;;14.38;64.04;98958.88;5117845;28;8877;-59
2023/03/30 01:14:20;;;;;;;;;1.00;1.00;;;;;14.37;64.25;98951.84;5117874;28;8827;-62
2023/03/30 01:16:49;;;;;;;;;1.00;1.00;;;;;14.36;63.86;98961.69;5117312;28;9658;-61
2023/03/30 01:19:17;;;;;;;;;0.75;0.75;;;;;14.35;64.33;98948.50;5117030;28;8836;-62
2023/03/30 01:21:47;;;;;;;;;1.00;1.00;;;;;14.34;64.29;98941.47;5116550;28;8894;-60
2023/03/30 01:24:15;;;;;;;;;1.00;1.00;;;;;14.29;64.53;98942.00;5117180;28;8823;-60
2023/03/30 01:26:43;;;;;;;;;3.00;2.50;;;;;14.30;64.28;98943.66;5116923;28;8812;-59
2023/03/30 01:29:11;;;;;;;;;3.25;1.00;;;;;14.30;64.04;98942.81;5116705;28;8816;-60
2023/03/30 01:31:39;;;;;;;;;2.50;2.50;;;;;14.29;63.68;98933.97;5116663;28;8812;-60
2023/03/30 01:34:06;;;;;;;;;2.00;2.00;;;;;14.28;63.46;98936.78;5117110;28;8819;-60
2023/03/30 01:36:34;;;;;;;;;2.00;2.00;;;;;14.30;63.98;98932.09;5116731;28;8809;-59
2023/03/30 01:39:02;;;;;;;;;3.00;3.00;;;;;14.38;63.65;98926.72;5115611;28;8855;-60
2023/03/30 01:41:30;;;;;;;;;1.00;1.00;;;;;14.46;63.50;98924.03;5116833;28;8820;-61
2023/03/30 01:43:58;;;;;;;;;1.00;1.00;;;;;14.56;63.15;98932.72;5117653;28;8907;-62
2023/03/30 01:46:29;;;;;;;;;1.50;1.50;;;;;14.67;62.53;98929.66;5116588;28;8816;-60
2023/03/30 01:48:57;;;;;;;;;0.00;0.00;;;;;14.77;62.39;98939.19;5115506;28;8887;-60
2023/03/30 01:51:25;;;;;;;;;1.50;1.50;;;;;14.89;61.98;98927.09;5115592;28;8913;-60
2023/03/30 01:53:52;;;;;;;;;1.00;1.00;;;;;15.01;61.50;98924.84;5116122;28;8804;-62
2023/03/30 01:56:20;;;;;;;;;1.50;1.50;;;;;15.10;61.52;98929.97;5115286;28;8824;-59
2023/03/30 01:58:48;;;;;;;;;1.00;1.00;;;;;15.19;60.74;98920.06;5115939;28;8815;-62
2023/03/30 02:01:16;;;;;;;;;2.00;2.00;;;;;15.28;60.04;98916.31;5116599;28;9477;-62
2023/03/30 02:03:45;;;;;;;;;1.00;1.00;;;;;15.35;60.23;98912.78;5116062;28;8835;-60
2023/03/30 02:06:13;;;;;;;;;1.00;1.00;;;;;15.40;59.95;98925.66;5115714;28;8824;-62
2023/03/30 02:08:40;;;;;;;;;1.00;1.00;;;;;15.41;60.51;98932.69;5115857;28;8828;-62
2023/03/30 02:11:08;;;;;;;;;1.00;1.00;;;;;15.43;60.46;98928.00;5116503;28;8831;-60
2023/03/30 02:13:36;;;;;;;;;3.00;1.50;;;;;15.43;60.71;98920.78;5116476;28;8851;-60
2023/03/30 02:16:04;;;;;;;;;1.00;1.00;;;;;15.45;59.83;98924.13;5116032;28;8808;-62
2023/03/30 02:18:31;;;;;;;;;1.00;1.00;;;;;15.48;59.87;98928.31;5116063;28;8926;-61
2023/03/30 02:21:00;;;;;;;;;2.00;1.00;;;;;15.52;59.29;98918.88;5116569;28;8807;-59
2023/03/30 02:23:32;;;;;;;;;0.75;0.75;;;;;15.56;59.68;98930.94;5116351;28;9747;-61
2023/03/30 02:26:00;;;;;;;;;0.50;0.50;;;;;15.61;59.15;98918.63;5116268;28;8804;-62
2023/03/30 02:28:27;;;;;;;;;1.00;1.00;;;;;15.63;58.90;98913.91;5115508;28;8812;-59
2023/03/30 02:30:55;;;;;;;;;1.00;1.00;;;;;15.65;58.83;98913.75;5116295;28;8827;-60
2023/03/30 02:33:23;;;;;;;;;2.00;1.50;;;;;15.68;58.73;98919.59;5116293;28;8839;-60
2023/03/30 02:35:52;;;;;;;;;1.00;1.00;;;;;15.69;58.54;98918.56;5115700;28;8808;-62
2023/03/30 02:38:20;;;;;;;;;3.00;3.00;;;;;15.70;58.31;98908.69;5116290;28;8816;-62
2023/03/30 02:40:48;;;;;;;;;1.00;1.00;;;;;15.71;58.30;98892.38;5116284;28;8819;-60
2023/03/30 02:43:15;;;;;;;;;3.25;3.00;;;;;15.72;58.19;98903.97;5116759;28;8816;-60
2023/03/30 02:45:43;;;;;;;;;1.00;0.00;;;;;15.74;58.33;98894.72;5115864;28;8824;-62
2023/03/30 02:48:11;;;;;;;;;1.00;1.00;;;;;15.73;57.96;98890.38;5116490;28;8810;-60
2023/03/30 02:50:39;;;;;;;;;3.00;2.00;;;;;15.75;58.04;98866.88;5115788;28;8809;-59
2023/03/30 02:53:06;;;;;;;;;3.00;3.00;;;;;15.74;57.98;98869.72;5116227;28;8940;-61
2023/03/30 02:55:35;;;;;;;;;0.50;0.50;;;;;15.74;58.22;98864.34;5115556;28;8840;-60
2023/03/30 02:58:04;;;;;;;;;2.00;2.00;;;;;15.72;58.42;98874.44;5116145;28;8950;-61
2023/03/30 03:00:32;;;;;;;;;3.75;3.25;;;;;15.67;57.51;98853.50;5117750;28;8846;-60
2023/03/30 03:03:01;;;;;;;;;3.00;3.00;;;;;15.59;58.13;98860.78;5120101;28;8813;-60
2023/03/30 03:05:31;;;;;;;;;1.00;1.00;;;;;15.52;58.36;98838.34;5119922;28;8832;-59
2023/03/30 03:07:58;;;;;;;;;1.00;1.00;;;;;15.47;58.54;98840.78;5119817;28;8831;-60
2023/03/30 03:10:26;;;;;;;;;3.00;3.00;;;;;15.45;58.05;98832.88;5119986;28;8821;-60
2023/03/30 03:12:54;;;;;;;;;5.00;3.50;;;;;15.46;58.87;98833.75;5119813;28;8905;-60
2023/03/30 03:15:22;;;;;;;;;2.50;2.50;;;;;15.47;58.43;98830.03;5119634;28;8821;-61
2023/03/30 03:17:50;;;;;;;;;2.50;1.00;;;;;15.47;58.78;98830.03;5118924;28;8813;-60
2023/03/30 03:20:18;;;;;;;;;1.50;1.00;;;;;15.44;58.83;98820.50;5119328;28;8851;-59
2023/03/30 03:22:45;;;;;;;;;0.50;0.25;;;;;15.43;59.02;98824.19;5119284;28;8820;-60
2023/03/30 03:25:14;;;;;;;;;1.00;1.00;;;;;15.41;58.65;98844.16;5118598;28;8826;-61
2023/03/30 03:27:42;;;;;;;;;1.00;1.00;;;;;15.40;58.85;98837.94;5119253;28;9238;-59
2023/03/30 03:30:09;;;;;;;;;0.25;0.25;;;;;15.42;58.49;98838.63;5119137;28;8833;-61
2023/03/30 03:32:37;;;;;;;;;2.50;2.50;;;;;15.47;58.74;98827.34;5119058;28;8812;-60
2023/03/30 03:35:05;;;;;;;;;3.00;2.00;;;;;15.51;58.81;98826.81;5118862;28;8808;-59
2023/03/30 03:37:32;;;;;;;;;2.00;2.00;;;;;15.52;58.79;98828.47;5118087;28;8865;-61
2023/03/30 03:40:01;;;;;;;;;3.00;3.00;;;;;15.50;58.74;98825.16;5118995;28;8807;-60
2023/03/30 03:42:28;;;;;;;;;1.00;1.00;;;;;15.47;58.25;98832.72;5119101;28;8955;-62
2023/03/30 03:44:56;;;;;;;;;2.00;2.00;;;;;15.41;58.48;98853.03;5118486;28;8835;-62
2023/03/30 03:47:24;;;;;;;;;1.00;1.00;;;;;15.38;58.69;98847.19;5118199;28;8832;-60
2023/03/30 03:49:52;;;;;;;;;2.50;2.00;;;;;15.33;58.60;98849.59;5118729;28;8871;-62
2023/03/30 03:52:20;;;;;;;;;1.00;1.00;;;;;15.29;59.23;98846.41;5118239;28;8804;-60
2023/03/30 03:54:47;;;;;;;;;4.00;2.00;;;;;15.29;59.30;98843.72;5119119;28;8840;-62
2023/03/30 03:57:15;;;;;;;;;1.00;1.00;;;;;15.29;59.37;98845.53;5118594;28;9474;-63
2023/03/30 03:59:43;;;;;;;;;1.00;1.00;;;;;15.26;59.07;98846.72;5118048;28;8908;-60
2023/03/30 04:02:12;;;;;;;;;3.00;2.00;;;;;15.25;59.65;98845.06;5119197;28;8875;-61
2023/03/30 04:04:40;;;;;;;;;2.00;1.50;;;;;15.25;59.40;98842.38;5118648;28;8823;-61
2023/03/30 04:07:08;;;;;;;;;1.00;0.80;;;;;15.26;59.29;98832.50;5118810;28;8823;-62
2023/03/30 04:09:35;;;;;;;;;3.00;3.00;;;;;15.22;59.63;98831.19;5118671;28;8832;-61
2023/03/30 04:12:03;;;;;;;;;1.50;1.50;;;;;15.17;59.55;98828.22;5117087;28;8866;-61
2023/03/30 04:14:30;;;;;;;;;1.00;1.00;;;;;15.11;59.79;98819.00;5118980;28;8828;-62
2023/03/30 04:16:58;;;;;;;;;3.00;2.00;;;;;15.06;60.39;98821.41;5118308;28;8825;-62
2023/03/30 04:19:26;;;;;;;;;0.00;0.00;;;;;15.02;60.08;98816.59;5118177;28;8844;-62
2023/03/30 04:21:54;;;;;;;;;2.50;2.50;;;;;15.02;59.74;98822.75;5117941;28;8831;-60
2023/03/30 04:24:22;;;;;;;;;3.00;3.00;;;;;15.02;60.16;98824.63;5117529;28;8808;-59
2023/03/30 04:26:49;;;;;;;;;1.50;0.50;;;;;15.04;60.29;98823.44;5117221;28;8824;-60
2023/03/30 04:29:19;;;;;;;;;2.50;2.50;;;;;15.07;60.11;98838.31;5117946;28;8819;-61
2023/03/30 04:31:47;;;;;;;;;2.50;2.50;;;;;15.09;59.92;98826.41;5118257;28;8827;-60
2023/03/30 04:34:14;;;;;;;;;1.00;1.00;;;;;15.14;59.81;98818.69;5117806;28;8824;-61
2023/03/30 04:36:43;;;;;;;;;2.00;1.00;;;;;15.20;60.17;98809.06;5117914;28;8820;-59
2023/03/30 04:39:12;;;;;;;;;2.50;2.50;;;;;15.24;59.54;98808.53;5117622;28;8842;-61
2023/03/30 04:41:40;;;;;;;;;3.00;1.00;;;;;15.28;59.83;98804.50;5118238;28;8831;-61
2023/03/30 04:44:09;;;;;;;;;3.00;1.00;;;;;15.36;60.06;98798.25;5117760;28;8824;-61
2023/03/30 04:46:36;;;;;;;;;1.00;1.00;;;;;15.38;59.54;98790.84;5097587;28;8826;-62
2023/03/30 04:49:04;;;;;;;;;3.00;2.00;;;;;15.37;59.41;98802.59;5097739;28;8842;-60
2023/03/30 04:51:32;;;;;;;;;3.00;3.00;;;;;15.34;60.16;98787.72;5116667;28;8865;-61
2023/03/30 04:54:01;;;;;;;;;1.50;1.00;;;;;15.31;59.81;98782.69;5118104;28;8820;-60
2023/03/30 04:56:28;;;;;;;;;3.00;3.00;;;;;15.28;60.00;98780.34;5117656;28;8832;-60
2023/03/30 04:58:56;;;;;;;;;3.25;1.00;;;;;15.28;59.98;98782.19;5117537;28;8827;-62
2023/03/30 05:01:24;;;;;;;;;6.00;5.00;;;;;15.25;59.69;98782.56;5116936;28;8962;-59
2023/03/30 05:03:51;;;;;;;;;5.75;4.00;;;;;15.20;60.00;98780.41;5117402;28;8954;-60
2023/03/30 05:06:22;;;;;;;;;1.00;1.00;;;;;15.17;60.18;98788.00;5116671;28;8916;-60
2023/03/30 05:08:49;;;;;;;;;2.50;2.50;;;;;15.14;60.60;98785.66;5116969;28;8843;-60
2023/03/30 05:11:17;;;;;;;;;3.00;3.00;;;;;15.10;60.55;98792.41;5116370;28;9461;-60
2023/03/30 05:13:46;;;;;;;;;3.00;3.00;;;;;15.07;61.20;98804.31;5116054;28;8832;-60
2023/03/30 05:16:13;;;;;;;;;1.50;1.50;;;;;15.03;60.62;98812.88;5115948;28;8878;-60
2023/03/30 05:18:42;;;;;;;;;3.25;3.00;;;;;15.00;60.66;98806.03;5116515;28;8890;-59
2023/03/30 05:21:10;;;;;;;;;3.00;3.00;;;;;15.02;61.15;98805.84;5115545;28;8832;-59
2023/03/30 05:23:38;;;;;;;;;2.50;2.50;;;;;15.01;60.90;98804.19;5114108;28;8836;-60
2023/03/30 05:26:06;;;;;;;;;3.00;3.00;;;;;15.01;60.81;98807.69;5113808;28;8855;-60
2023/03/30 05:28:35;;;;;;;;;4.00;4.00;;;;;15.05;60.90;98800.97;5113315;28;8820;-60
2023/03/30 05:31:03;;;;;;;;;3.00;3.00;;;;;15.09;60.96;98798.78;5112757;28;8928;-62
2023/03/30 05:33:31;;;;;;;;;4.00;3.00;;;;;15.11;60.80;98799.44;5112752;28;8924;-61
2023/03/30 05:35:58;;;;;;;;;3.00;2.00;;;;;15.12;60.48;98801.09;5113788;28;8844;-61
2023/03/30 05:38:26;;;;;;;;;3.25;3.25;;;;;15.15;60.72;98798.03;5113199;28;8831;-62
2023/03/30 05:40:54;;;;;;;;;1.50;1.50;;;;;15.15;60.73;98784.63;5112933;28;8835;-62
2023/03/30 05:43:22;;;;;;;;;3.75;3.75;;;;;15.18;61.01;98795.03;5114107;28;8824;-59
2023/03/30 05:45:50;;;;;;;;;3.25;3.25;;;;;15.18;61.17;98803.06;5113455;28;8843;-60
2023/03/30 05:48:17;;;;;;;;;3.25;3.00;;;;;15.18;61.09;98814.59;5113402;28;8851;-62
2023/03/30 05:50:45;;;;;;;;;0.25;0.25;;;;;15.19;61.46;98827.03;5113203;28;8839;-62
2023/03/30 05:53:13;;;;;;;;;3.00;3.00;;;;;15.21;60.99;98832.19;5112638;28;8909;-62
2023/03/30 05:55:40;;;;;;;;;2.00;2.00;;;;;15.20;61.10;98825.16;5113758;28;8831;-60
2023/03/30 05:58:08;;;;;;;;;2.00;2.00;;;;;15.19;61.34;98821.66;5112909;28;8885;-59
2023/03/30 06:00:36;;;;;;;;;3.00;3.00;;;;;15.19;61.28;98821.66;5111329;28;9532;-59
2023/03/30 06:03:04;;;;;;;;;3.00;3.00;;;;;15.21;61.35;98830.38;5111003;28;9524;-60
2023/03/30 06:05:33;;;;;;;;;3.25;3.00;;;;;15.24;60.88;98826.50;5111347;28;8851;-61
2023/03/30 06:08:01;;;;;;;;;1.50;1.50;;;;;15.25;61.55;98826.28;5110994;28;8847;-60
2023/03/30 06:10:28;;;;;;;;;2.50;2.50;;;;;15.28;60.69;98831.31;5111465;28;8887;-60
2023/03/30 06:12:56;;;;;;;;;3.25;2.75;;;;;15.31;61.09;98827.44;5113584;28;8847;-60
2023/03/30 06:15:24;;;;;;;;;2.00;2.00;;;;;15.33;61.25;98828.94;5111488;28;9150;-60
2023/03/30 06:17:52;;;;;;;;;3.00;1.00;;;;;15.37;61.02;98821.38;5111647;28;8832;-60
2023/03/30 06:20:20;;;;;;;;;1.50;1.50;;;;;15.40;60.82;98829.09;5111668;28;8852;-61
2023/03/30 06:22:48;;;;;;;;;1.00;1.00;;;;;15.42;60.99;98821.69;5109904;28;8917;-61
2023/03/30 06:25:16;;;;;;;;;3.75;3.00;;;;;15.45;61.09;98832.88;5110429;28;9528;-61
2023/03/30 06:27:43;;;;;;;;;2.50;2.50;;;;;15.47;61.00;98836.22;5110985;28;8892;-61
2023/03/30 06:30:11;;;;;;;;;2.00;2.00;;;;;15.49;60.94;98828.81;5110645;28;8843;-61
2023/03/30 06:32:39;;;;;;;;;2.00;1.00;;;;;15.51;60.63;98823.28;5112353;28;8848;-59
2023/03/30 06:35:07;;;;;;;;;1.00;1.00;;;;;15.51;60.76;98825.97;5111223;28;9607;-59
2023/03/30 06:37:36;;;;;;;;;0.00;0.00;;;;;15.50;60.78;98825.16;5111954;28;9213;-62
2023/03/30 06:40:07;;;;;;;;;1.00;1.00;;;;;15.52;60.32;98816.91;5110011;28;8866;-60
2023/03/30 06:42:35;;;;;;;;;1.00;1.00;;;;;15.54;60.63;98814.88;5109998;28;8831;-61
2023/03/30 06:45:03;;;;;;;;;1.00;1.00;;;;;15.57;60.26;98809.16;5110302;28;8878;-62
2023/03/30 06:47:31;;;;;;;;;1.00;1.00;;;;;15.57;60.74;98817.19;5110330;28;8842;-62
2023/03/30 06:49:59;;;;;;;;;3.00;3.00;;;;;15.56;60.53;98813.66;5109686;28;8872;-60
2023/03/30 06:52:26;;;;;;;;;1.00;1.00;;;;;15.56;60.65;98807.47;5110130;28;8855;-60
2023/03/30 06:54:54;;;;;;;;;0.60;0.60;;;;;15.55;60.62;98805.81;5110142;28;8835;-60
2023/03/30 06:57:23;;;;;;;;;1.00;1.00;;;;;15.53;60.34;98811.34;5111484;28;8925;-61
2023/03/30 06:59:50;;;;;;;;;1.50;1.50;;;;;15.51;60.52;98818.75;5110878;28;8828;-61
2023/03/30 07:02:18;;;;;;;;;3.25;1.00;;;;;15.52;60.39;98807.00;5110776;28;8866;-60
2023/03/30 07:04:46;;;;;;;;;1.00;1.00;;;;;15.64;60.33;98805.53;5110722;28;8831;-61
2023/03/30 07:07:14;;;;;;;;;3.00;1.00;;;;;15.80;59.74;98802.72;5111684;28;8846;-60
2023/03/30 07:09:42;;;;;;;;;4.50;3.25;;;;;15.93;59.57;98807.47;5112050;28;8824;-61
2023/03/30 07:12:10;;;;;;;;;3.50;3.00;;;;;15.93;59.75;98805.59;5110741;28;8840;-60
2023/03/30 07:14:38;;;;;;;;;4.75;4.75;;;;;15.92;59.75;98820.03;5110858;28;8856;-60
2023/03/30 07:17:06;;;;;;;;;7.75;5.00;;;;;15.97;60.08;98811.44;5109058;28;8847;-61
2023/03/30 07:19:35;;;;;;;;;3.00;3.00;;;;;16.04;60.09;98807.84;5107596;28;8957;-62
2023/03/30 07:22:03;;;;;;;;;3.50;3.25;;;;;16.15;59.79;98811.94;5109554;28;8823;-60
2023/03/30 07:24:32;;;;;;;;;3.50;3.50;;;;;16.23;59.53;98822.59;5108804;28;8839;-61
2023/03/30 07:27:00;;;;;;;;;6.00;6.00;;;;;16.26;59.89;98823.88;5110338;28;8832;-62
2023/03/30 07:29:28;;;;;;;;;3.80;3.80;;;;;16.36;59.62;98821.75;5110660;28;8950;-62
2023/03/30 07:31:57;;;;;;;;;3.20;3.20;;;;;16.57;59.34;98819.16;5109094;28;8848;-61
2023/03/30 07:34:25;;;;;;;;;3.00;3.00;;;;;16.75;58.54;98808.84;5109443;28;8882;-60
2023/03/30 07:36:53;;;;;;;;;3.80;3.00;;;;;16.82;58.72;98808.91;5109212;28;8851;-61
2023/03/30 07:39:21;;;;;;;;;1.00;1.00;;;;;16.83;58.68;98824.03;5109375;28;9248;-61
2023/03/30 07:41:49;;;;;;;;;3.00;3.00;;;;;16.75;58.69;98830.38;5109755;28;8828;-60
2023/03/30 07:44:17;;;;;;;;;1.80;1.80;;;;;16.75;58.93;98822.28;5110918;28;8840;-59
2023/03/30 07:46:45;;;;;;;;;3.60;3.60;;;;;16.81;59.01;98835.00;5114099;28;8870;-61
2023/03/30 07:49:14;;;;;;;;;2.20;1.80;;;;;16.84;58.60;98848.06;5115403;28;9634;-60
2023/03/30 07:51:41;;;;;;;;;0.80;0.80;;;;;16.80;58.51;98835.16;5115241;28;8836;-62
2023/03/30 07:54:10;;;;;;;;;2.60;2.60;;;;;16.73;58.20;98826.19;5115517;28;8958;-60
2023/03/30 07:56:41;;;;;;;;;3.20;3.00;;;;;16.66;58.67;98831.50;5115660;28;8864;-62
2023/03/30 07:59:11;;;;;;;;;1.00;1.00;;;;;16.65;58.55;98840.56;5116508;28;8855;-62
2023/03/30 08:01:39;;;;;;;;;3.00;1.80;;;;;16.66;58.28;98842.25;5116022;28;8827;-60
2023/03/30 08:04:07;;;;;;;;;2.60;1.00;;;;;16.72;58.64;98832.59;5114766;28;8839;-59
2023/03/30 08:06:35;;;;;;;;;1.40;1.00;;;;;16.71;58.23;98828.25;5114412;28;8866;-59
2023/03/30 08:09:04;;;;;;;;;3.40;3.00;;;;;16.63;58.70;98847.16;5115319;28;9281;-60
2023/03/30 08:11:34;;;;;;;;;3.00;3.00;;;;;15.90;60.21;98859.69;5114945;28;8848;-60
2023/03/30 08:14:02;;;;;;;;;2.20;2.20;;;;;15.21;62.35;98867.91;5115863;28;8858;-60
2023/03/30 08:16:30;;;;;;;;;2.60;2.60;;;;;14.84;63.22;98875.81;5115115;28;8843;-60
2023/03/30 08:18:58;;;;;;;;;0.50;0.50;;;;;14.73;63.08;98883.41;5115900;28;8929;-60
2023/03/30 08:27:22;;;;;;;;;1.50;1.50;;;;;15.04;62.71;98878.91;5115206;28;8828;-59
2023/03/30 08:29:53;;;;;;;;;3.00;2.00;;;;;15.15;62.10;98867.75;5114340;28;8835;-61
2023/03/30 08:32:21;;;;;;;;;3.00;3.00;;;;;15.20;62.37;98873.44;5115318;28;8832;-60
2023/03/30 08:34:49;;;;;;;;;3.00;1.00;;;;;14.94;62.94;98889.03;5115902;28;9567;-60
2023/03/30 08:37:16;;;;;;;;;2.00;2.00;;;;;14.74;64.01;98882.41;5115363;28;8855;-60
2023/03/30 08:39:45;;;;;;;;;3.00;1.00;;;;;14.66;64.09;98885.13;5115428;28;8831;-61
2023/03/30 08:42:13;;;;;;;;;3.00;2.50;;;;;14.54;64.44;98897.22;5115126;28;8836;-60
2023/03/30 08:44:40;;;;;;;;;1.00;1.00;;;;;14.11;65.54;98903.00;5115747;28;8836;-59
2023/03/30 08:47:09;;;;;;;;;3.00;3.00;;;;;13.74;66.00;98903.50;5115849;28;8843;-60
2023/03/30 08:49:37;;;;;;;;;3.00;3.00;;;;;13.50;67.33;98914.19;5115746;28;8835;-60
2023/03/30 08:52:05;;;;;;;;;1.00;1.00;;;;;13.39;67.53;98919.88;5116139;28;8832;-59
2023/03/30 08:54:32;;;;;;;;;3.50;3.00;;;;;13.41;67.41;98931.22;5115787;28;8816;-58
2023/03/30 08:57:00;;;;;;;;;1.00;1.00;;;;;13.39;67.55;98938.59;5115745;28;8920;-59
2023/03/30 08:59:28;;;;;;;;;0.00;0.00;;;;;13.07;68.41;98933.13;5115093;28;8827;-60
2023/03/30 09:01:56;;;;;;;;;0.50;0.50;;;;;12.77;69.55;98935.50;5116020;28;8831;-59
2023/03/30 09:04:24;;;;;;;;;0.00;0.00;;;;;12.55;70.20;98942.22;5115579;28;8862;-59
2023/03/30 09:06:52;;;;;;;;;0.75;0.00;;;;;12.39;70.97;98944.81;5114771;28;8828;-59
2023/03/30 09:09:20;;;;;;;;;0.00;0.00;;;;;12.26;71.07;98941.75;5113585;28;8870;-59
2023/03/30 09:11:48;;;;;;;;;0.00;0.00;;;;;12.18;71.83;98940.84;5114644;28;8824;-59
2023/03/30 09:14:16;;;;;;;;;1.50;1.50;;;;;12.12;71.89;98942.31;5113687;28;8823;-61
2023/03/30 09:16:44;;;;;;;;;3.00;3.00;;;;;12.12;71.97;98938.81;5112329;28;8839;-61
2023/03/30 09:19:12;;;;;;;;;0.00;0.00;;;;;12.15;71.52;98943.84;5111231;28;8859;-60
2023/03/30 09:21:40;;;;;;;;;0.00;0.00;;;;;12.23;71.80;98949.22;5111183;28;8862;-59
2023/03/30 09:24:09;;;;;;;;;0.50;0.50;;;;;12.44;71.75;98944.34;5110882;28;8840;-59
2023/03/30 09:26:38;;;;;;;;;0.00;0.00;;;;;12.70;71.00;98951.31;5112763;28;8950;-59
2023/03/30 09:29:07;;;;;;;;;0.75;0.75;;;;;12.93;70.68;98943.59;5112055;28;9549;-61
2023/03/30 09:31:35;;;;;;;;;2.50;2.50;;;;;13.17;70.02;98936.53;5128891;27;8821;-59
2023/03/30 09:34:03;;;;;;;;;0.00;0.00;;;;;13.54;69.11;98946.78;5132791;27;8837;-59
2023/03/30 09:36:35;;;;;;;;;1.00;0.00;;;;;13.75;69.25;98944.47;5133896;27;8971;-60
2023/03/30 09:39:05;;;;;;;;;1.00;1.00;;;;;14.02;68.31;98936.09;5133604;27;9213;-59
2023/03/30 09:41:34;;;;;;;;;0.75;0.75;;;;;14.34;67.46;98942.28;5134304;27;8837;-59
2023/03/30 09:44:01;;;;;;;;;1.00;1.00;;;;;14.58;67.06;98934.19;5134506;27;8822;-59
2023/03/30 09:46:29;;;;;;;;;0.00;0.00;;;;;14.73;66.99;98942.38;5135512;27;8952;-59
2023/03/30 09:48:57;;;;;;;;;1.00;1.00;;;;;14.86;66.75;98931.97;5134780;27;8906;-58
2023/03/30 09:51:25;;;;;;;;;0.50;0.50;;;;;15.03;66.27;98930.88;5133687;27;8825;-59
2023/03/30 09:53:57;;;;;;;;;0.25;0.25;;;;;15.19;65.49;98928.94;5134345;27;8955;-59
2023/03/30 09:56:25;;;;;;;;;1.00;0.50;;;;;15.40;65.61;98912.25;5133849;27;8894;-58
2023/03/30 09:58:54;;;;;;;;;0.50;0.50;;;;;15.70;65.07;98914.06;5133632;27;8976;-59
2023/03/30 10:01:23;;;;;;;;;1.00;1.00;;;;;16.17;64.00;98914.66;5133278;27;8825;-59
2023/03/30 10:03:50;;;;;;;;;3.00;1.00;;;;;16.94;62.24;98913.13;5132716;27;8837;-62
2023/03/30 10:06:20;;;;;;;;;0.00;0.00;;;;;17.27;61.69;98906.31;5132901;27;8830;-60
2023/03/30 10:08:48;;;;;;;;;1.00;1.00;;;;;17.60;61.18;98920.19;5132187;27;8834;-62
2023/03/30 10:11:16;;;;;;;;;2.60;2.60;;;;;17.42;61.64;98934.06;5133040;27;9574;-62
2023/03/30 10:13:45;;;;;;;;;2.60;1.80;;;;;16.70;63.19;98948.38;5133731;27;8865;-60
2023/03/30 10:16:12;;;;;;;;;0.00;0.00;;;;;15.53;65.54;98995.66;5132875;27;8861;-62
2023/03/30 10:18:41;;;;;;;;;2.60;1.00;;;;;14.63;68.52;98979.25;5131894;27;9542;-61
2023/03/30 10:21:09;;;;;;;;;0.40;0.40;;;;;13.96;70.40;98983.13;5132234;27;8964;-60
2023/03/30 10:23:41;;;;;;;;;1.00;1.00;;;;;13.59;71.11;98997.97;5132605;27;8832;-60
2023/03/30 10:26:09;;;;;;;;;3.00;3.00;;;;;13.30;71.24;99003.72;5133090;27;8907;-60
2023/03/30 10:28:37;;;;;;;;;0.00;0.00;;;;;13.09;71.98;99010.50;5133517;27;8840;-57
2023/03/30 10:31:05;;;;;;;;;0.00;0.00;;;;;12.87;72.21;99013.69;5134804;27;8845;-60
2023/03/30 10:33:34;;;;;;;;;0.50;0.50;;;;;12.75;72.50;99002.44;5135285;27;8856;-59
2023/03/30 10:36:02;;;;;;;;;1.00;1.00;;;;;12.79;73.06;99005.66;5134580;27;8857;-58
2023/03/30 10:38:31;;;;;;;;;0.00;0.00;;;;;12.87;72.34;99003.00;5134359;27;8853;-60
2023/03/30 10:41:01;;;;;;;;;0.00;0.00;;;;;12.94;72.31;99006.72;5134257;27;8919;-60
2023/03/30 10:43:30;;;;;;;;;1.00;1.00;;;;;12.99;72.39;98999.09;5134201;27;8833;-59
2023/03/30 10:45:57;;;;;;;;;0.75;0.00;;;;;13.00;71.48;99000.78;5134428;27;8826;-60
2023/03/30 10:48:45;;;;;;;;;0.50;0.00;;;;;12.98;71.53;99010.81;5134147;27;8834;-59
2023/03/30 10:51:13;;;;;;;;;2.00;1.00;;;;;12.96;71.94;99007.44;5133725;27;8838;-58
2023/03/30 10:53:42;;;;;;;;;0.75;0.75;;;;;12.96;71.88;99010.09;5133241;27;9894;-60
2023/03/30 10:56:11;;;;;;;;;1.50;1.00;;;;;13.02;71.32;99014.81;5133161;27;8841;-60
2023/03/30 10:58:39;;;;;;;;;1.00;1.00;;;;;13.19;70.66;99003.19;5133488;27;8829;-58
2023/03/30 11:01:06;;;;;;;;;0.00;0.00;;;;;13.48;70.54;99006.28;5133071;27;8833;-61
2023/03/30 11:03:35;;;;;;;;;0.00;0.00;;;;;14.08;69.24;98995.19;5133189;27;8969;-58
2023/03/30 11:06:03;;;;;;;;;0.00;0.00;;;;;14.25;68.74;98971.94;5132554;27;8833;-60
2023/03/30 11:08:32;;;;;;;;;1.50;1.00;;;;;14.15;68.97;98985.47;5132886;27;8829;-60
2023/03/30 11:11:00;;;;;;;;;0.00;0.00;;;;;14.11;68.66;98984.13;5132750;27;8829;-60
2023/03/30 11:13:28;;;;;;;;;1.00;1.00;;;;;14.49;67.66;98990.69;5133745;27;9782;-58
2023/03/30 11:15:56;;;;;;;;;1.00;1.00;;;;;15.43;65.80;98984.34;5133460;27;8810;-58
2023/03/30 11:18:24;;;;;;;;;2.00;2.00;;;;;16.00;64.32;98983.78;5133972;27;8866;-61
2023/03/30 11:20:52;;;;;;;;;0.25;0.00;;;;;16.71;63.22;98987.69;5134938;27;8868;-61
2023/03/30 11:23:20;;;;;;;;;0.60;0.60;;;;;17.41;61.64;98967.41;5137586;27;8826;-60
2023/03/30 11:25:48;;;;;;;;;0.80;0.80;;;;;18.30;60.35;98972.28;5136873;27;8872;-61
2023/03/30 11:28:16;;;;;;;;;0.80;0.80;;;;;18.80;58.48;98975.56;5137128;27;9531;-59
2023/03/30 11:30:44;;;;;;;;;1.00;1.00;;;;;19.49;58.27;98979.09;5137593;27;8822;-58
2023/03/30 11:33:12;;;;;;;;;1.00;1.00;;;;;20.07;56.83;98971.16;5137532;27;8829;-59
2023/03/30 11:35:40;;;;;;;;;0.00;0.00;;;;;20.37;56.49;98969.72;5137267;27;8938;-60
2023/03/30 11:38:08;;;;;;;;;0.00;0.00;;;;;20.70;55.62;98981.34;5136911;27;8923;-61
2023/03/30 11:40:36;;;;;;;;;0.00;0.00;;;;;20.72;55.30;98978.47;5136081;27;9772;-62
2023/03/30 11:43:05;;;;;;;;;1.00;1.00;;;;;20.53;55.66;98979.28;5135434;27;9569;-61
2023/03/30 11:45:33;;;;;;;;;0.40;0.40;;;;;20.69;55.26;98973.47;5135803;27;8826;-61
2023/03/30 11:48:01;;;;;;;;;1.00;0.80;;;;;19.98;55.79;98980.47;5136187;27;8841;-61
2023/03/30 11:50:29;;;;;;;;;2.20;2.20;;;;;20.00;56.19;98980.25;5135771;27;9228;-60